Time;durP1;ratioP1;P1;durP2;ratioP2;P2;SDS_P1;SDS_P2;PMS_P1;PMS_P2;Temp;Humidity;BMP_temperature;BMP_pressure;BME280_temperature;BME280_humidity;BME280_pressure;Samples;Min_cycle;Max_cycle;Signal;HPM_P1;HPM_P2
2021/03/27 00:02:31;;;;;;;1.33;1.23;;;;;;;;;;5113431;28;20660;-65
2021/03/27 00:05:05;;;;;;;1.70;1.60;;;;;;;;;;5113244;28;20708;-65
2021/03/27 00:07:31;;;;;;;2.97;2.28;;;;;;;;;;5113285;28;20165;-65
2021/03/27 00:10:15;;;;;;;1.93;1.83;;;;;;;;;;5112512;28;20235;-65
2021/03/27 00:12:50;;;;;;;1.10;1.10;;;;;;;;;;5113010;28;20463;-65
2021/03/27 00:15:22;;;;;;;5.53;2.85;;;;;;;;;;5113052;28;20738;-65
2021/03/27 00:18:08;;;;;;;3.63;2.53;;;;;;;;;;5112148;28;20188;-65
2021/03/27 00:20:40;;;;;;;1.58;1.48;;;;;;;;;;5112199;28;20217;-65
2021/03/27 00:23:08;;;;;;;1.23;1.23;;;;;;;;;;5112794;28;20173;-65
2021/03/27 00:25:37;;;;;;;2.35;2.13;;;;;;;;;;5112964;28;20231;-65
2021/03/27 00:28:03;;;;;;;1.13;1.08;;;;;;;;;;5112802;28;20198;-65
2021/03/27 00:30:52;;;;;;;1.00;1.00;;;;;;;;;;5111933;28;20193;-65
2021/03/27 00:33:21;;;;;;;2.58;2.40;;;;;;;;;;5099459;28;20197;-65
2021/03/27 00:35:56;;;;;;;1.40;1.40;;;;;;;;;;5112550;28;20692;-65
2021/03/27 00:38:23;;;;;;;1.02;1.02;;;;;;;;;;5112693;28;20169;-65
2021/03/27 00:40:50;;;;;;;1.88;1.80;;;;;;;;;;5111852;28;20578;-65
2021/03/27 00:43:22;;;;;;;1.23;1.23;;;;;;;;;;5112564;28;20252;-65
2021/03/27 00:45:51;;;;;;;2.13;1.42;;;;;;;;;;5112497;28;20169;-65
2021/03/27 00:48:18;;;;;;;1.83;1.70;;;;;;;;;;5112448;28;20211;-65
2021/03/27 00:50:48;;;;;;;1.80;1.70;;;;;;;;;;5111700;28;20255;-65
2021/03/27 00:53:23;;;;;;;0.82;0.80;;;;;;;;;;5112394;28;20225;-65
2021/03/27 00:55:59;;;;;;;1.55;1.55;;;;;;;;;;5112386;28;20624;-65
2021/03/27 00:58:27;;;;;;;3.22;2.22;;;;;;;;;;5112094;28;20254;-65
2021/03/27 01:00:56;;;;;;;1.65;1.55;;;;;;;;;;5111596;28;20216;-65
2021/03/27 01:03:30;;;;;;;2.47;1.02;;;;;;;;;;5112247;28;20243;-65
2021/03/27 01:05:57;;;;;;;6.90;1.58;;;;;;;;;;5112210;28;20220;-65
2021/03/27 01:08:25;;;;;;;1.27;1.17;;;;;;;;;;5112190;28;20193;-65
2021/03/27 01:10:55;;;;;;;0.93;0.93;;;;;;;;;;5111314;28;20200;-65
2021/03/27 01:13:28;;;;;;;1.05;1.05;;;;;;;;;;5112000;28;20288;-65
2021/03/27 01:15:56;;;;;;;1.45;1.35;;;;;;;;;;5112117;28;20180;-65
2021/03/27 01:18:27;;;;;;;3.60;1.20;;;;;;;;;;5111995;28;20165;-65
2021/03/27 01:20:56;;;;;;;2.17;1.45;;;;;;;;;;5111344;28;20196;-65
2021/03/27 01:23:22;;;;;;;1.38;1.27;;;;;;;;;;5111876;28;20197;-65
2021/03/27 01:25:48;;;;;;;0.80;0.80;;;;;;;;;;5111643;28;20699;-65
2021/03/27 01:28:17;;;;;;;1.35;1.25;;;;;;;;;;5111908;28;20268;-65
2021/03/27 01:31:01;;;;;;;2.42;2.22;;;;;;;;;;5111151;28;20189;-63
2021/03/27 01:33:31;;;;;;;1.52;1.13;;;;;;;;;;5111806;28;20193;-65
2021/03/27 01:36:06;;;;;;;0.60;0.60;;;;;;;;;;5111734;28;20173;-65
2021/03/27 01:38:37;;;;;;;2.90;1.13;;;;;;;;;;5111828;28;20166;-65
2021/03/27 01:41:12;;;;;;;0.95;0.95;;;;;;;;;;5111053;28;20197;-65
2021/03/27 01:44:01;;;;;;;0.98;0.98;;;;;;;;;;5111730;28;20253;-65
2021/03/27 01:46:31;;;;;;;0.73;0.73;;;;;;;;;;5111607;28;20306;-65
2021/03/27 01:49:07;;;;;;;1.50;1.20;;;;;;;;;;5111054;28;20169;-65
2021/03/27 01:51:39;;;;;;;2.25;1.90;;;;;;;;;;5111741;28;20189;-65
2021/03/27 01:54:07;;;;;;;0.90;0.90;;;;;;;;;;5111646;28;20209;-65
2021/03/27 01:56:36;;;;;;;2.45;2.35;;;;;;;;;;5111564;28;20894;-65
2021/03/27 01:59:11;;;;;;;0.88;0.88;;;;;;;;;;5110897;28;20206;-65
2021/03/27 02:01:41;;;;;;;0.85;0.85;;;;;;;;;;5111587;28;20173;-65
2021/03/27 02:04:14;;;;;;;0.90;0.90;;;;;;;;;;5111490;28;20165;-65
2021/03/27 02:06:40;;;;;;;2.30;1.90;;;;;;;;;;5111505;28;20188;-65
2021/03/27 02:09:15;;;;;;;0.70;0.70;;;;;;;;;;5110728;28;20181;-65
2021/03/27 02:11:58;;;;;;;1.35;1.25;;;;;;;;;;5111527;28;20445;-65
2021/03/27 02:14:24;;;;;;;1.55;1.45;;;;;;;;;;5111712;28;20264;-65
2021/03/27 02:16:56;;;;;;;1.15;1.15;;;;;;;;;;5111456;28;20552;-65
2021/03/27 02:19:25;;;;;;;4.72;2.30;;;;;;;;;;5110690;28;20189;-65
2021/03/27 02:21:58;;;;;;;1.02;1.02;;;;;;;;;;5111385;28;20176;-65
2021/03/27 02:24:43;;;;;;;3.00;2.08;;;;;;;;;;5111519;28;20689;-65
2021/03/27 02:27:09;;;;;;;0.77;0.77;;;;;;;;;;5111323;28;20180;-65
2021/03/27 02:29:52;;;;;;;2.30;2.10;;;;;;;;;;5110656;28;20235;-65
2021/03/27 02:32:37;;;;;;;1.40;1.30;;;;;;;;;;5111227;28;20454;-65
2021/03/27 02:35:22;;;;;;;2.08;1.40;;;;;;;;;;5111366;28;20249;-64
2021/03/27 02:37:58;;;;;;;1.80;1.70;;;;;;;;;;5111252;28;20592;-65
2021/03/27 02:40:36;;;;;;;0.82;0.82;;;;;;;;;;5096807;22;20245;-63
2021/03/27 02:43:12;;;;;;;0.98;0.93;;;;;;;;;;5074136;28;20253;-63
2021/03/27 02:45:56;;;;;;;1.52;1.08;;;;;;;;;;5074247;28;20261;-63
2021/03/27 02:48:30;;;;;;;1.58;1.48;;;;;;;;;;5053935;28;20550;-63
2021/03/27 02:51:07;;;;;;;2.95;2.85;;;;;;;;;;5073406;28;20285;-63
2021/03/27 02:53:51;;;;;;;1.05;0.95;;;;;;;;;;5074082;28;20621;-64
2021/03/27 02:56:38;;;;;;;1.58;1.50;;;;;;;;;;5074023;28;20206;-63
2021/03/27 02:59:22;;;;;;;1.00;1.00;;;;;;;;;;5073355;28;20181;-63
2021/03/27 03:01:54;;;;;;;0.95;0.73;;;;;;;;;;5055952;28;20197;-63
2021/03/27 03:04:30;;;;;;;1.70;1.60;;;;;;;;;;5073809;28;20750;-63
2021/03/27 03:06:59;;;;;;;1.55;1.45;;;;;;;;;;5073866;28;20174;-63
2021/03/27 03:09:25;;;;;;;4.85;2.15;;;;;;;;;;5055157;28;20186;-64
2021/03/27 03:12:03;;;;;;;0.85;0.85;;;;;;;;;;5073729;28;20195;-63
2021/03/27 03:14:40;;;;;;;0.70;0.70;;;;;;;;;;5055664;28;20269;-64
2021/03/27 03:17:06;;;;;;;0.90;0.85;;;;;;;;;;5073650;28;20202;-63
2021/03/27 03:19:35;;;;;;;1.83;1.67;;;;;;;;;;5072885;28;20224;-63
2021/03/27 03:22:04;;;;;;;0.85;0.85;;;;;;;;;;5073791;28;20435;-63
2021/03/27 03:24:37;;;;;;;2.97;1.67;;;;;;;;;;5073517;28;20175;-64
2021/03/27 03:27:10;;;;;;;0.95;0.95;;;;;;;;;;5073421;28;20178;-63
2021/03/27 03:29:55;;;;;;;4.47;1.95;;;;;;;;;;5072738;28;20174;-64
2021/03/27 03:32:39;;;;;;;1.35;1.27;;;;;;;;;;5073212;28;20597;-64
2021/03/27 03:35:08;;;;;;;0.88;0.88;;;;;;;;;;5073389;28;20221;-63
2021/03/27 03:37:53;;;;;;;1.30;1.10;;;;;;;;;;5073285;28;20191;-64
2021/03/27 03:40:25;;;;;;;0.40;0.40;;;;;;;;;;5072487;28;20209;-64
2021/03/27 03:42:57;;;;;;;0.90;0.90;;;;;;;;;;5055413;28;20270;-64
2021/03/27 03:45:35;;;;;;;1.73;1.50;;;;;;;;;;5073262;28;20247;-64
2021/03/27 03:48:19;;;;;;;0.93;0.93;;;;;;;;;;5073037;28;20305;-64
2021/03/27 03:50:47;;;;;;;0.90;0.85;;;;;;;;;;5072246;28;20197;-64
2021/03/27 03:53:16;;;;;;;1.23;1.13;;;;;;;;;;5072911;28;20291;-64
2021/03/27 03:55:51;;;;;;;0.82;0.82;;;;;;;;;;5072815;28;20175;-64
2021/03/27 03:58:22;;;;;;;0.47;0.47;;;;;;;;;;5072869;28;20165;-64
2021/03/27 04:00:48;;;;;;;0.40;0.40;;;;;;;;;;5071992;28;20201;-64
2021/03/27 04:03:14;;;;;;;0.70;0.70;;;;;;;;;;5072753;28;20175;-64
2021/03/27 04:06:03;;;;;;;0.40;0.40;;;;;;;;;;5072713;28;20466;-64
2021/03/27 04:08:44;;;;;;;0.55;0.52;;;;;;;;;;5062131;28;20777;-64
2021/03/27 04:11:30;;;;;;;0.40;0.40;;;;;;;;;;5072335;28;20191;-63
2021/03/27 04:13:58;;;;;;;0.40;0.40;;;;;;;;;;5014651;28;20219;-64
2021/03/27 04:16:27;;;;;;;0.88;0.73;;;;;;;;;;5072386;28;20171;-64
2021/03/27 04:19:31;;;;;;;0.40;0.40;;;;;;;;;;5071783;28;20209;-63
2021/03/27 04:22:00;;;;;;;1.02;0.85;;;;;;;;;;4990833;28;20182;-64
2021/03/27 04:24:30;;;;;;;0.40;0.40;;;;;;;;;;4990822;28;20202;-64
2021/03/27 04:26:59;;;;;;;0.52;0.52;;;;;;;;;;5032994;28;20264;-64
2021/03/27 04:29:33;;;;;;;0.50;0.50;;;;;;;;;;5071529;28;20254;-64
2021/03/27 04:32:18;;;;;;;0.60;0.60;;;;;;;;;;5072110;28;20170;-64
2021/03/27 04:34:49;;;;;;;0.40;0.40;;;;;;;;;;5072405;28;20734;-64
2021/03/27 04:37:22;;;;;;;0.40;0.40;;;;;;;;;;5071964;28;20171;-64
2021/03/27 04:39:48;;;;;;;0.50;0.50;;;;;;;;;;5071239;28;20227;-64
2021/03/27 04:42:32;;;;;;;1.50;1.40;;;;;;;;;;5054078;28;20178;-64
2021/03/27 04:45:07;;;;;;;0.57;0.57;;;;;;;;;;5071842;28;20436;-63
2021/03/27 04:47:35;;;;;;;0.63;0.63;;;;;;;;;;5054003;28;20184;-64
2021/03/27 04:50:13;;;;;;;1.13;1.13;;;;;;;;;;5053235;28;20645;-63
2021/03/27 04:52:47;;;;;;;0.47;0.47;;;;;;;;;;5071878;28;20295;-64
2021/03/27 04:55:22;;;;;;;0.40;0.40;;;;;;;;;;5071810;28;20178;-64
2021/03/27 04:58:01;;;;;;;0.40;0.40;;;;;;;;;;5071679;28;20252;-64
2021/03/27 05:00:39;;;;;;;0.55;0.55;;;;;;;;;;5070974;28;20675;-63
2021/03/27 05:03:11;;;;;;;0.52;0.52;;;;;;;;;;5051499;28;20190;-64
2021/03/27 05:05:56;;;;;;;0.40;0.40;;;;;;;;;;5071729;28;20677;-64
2021/03/27 05:08:31;;;;;;;0.40;0.40;;;;;;;;;;5071626;28;20168;-63
2021/03/27 05:11:09;;;;;;;0.45;0.45;;;;;;;;;;5070904;28;20749;-64
2021/03/27 05:13:39;;;;;;;0.50;0.50;;;;;;;;;;5071490;28;20241;-64
2021/03/27 05:16:11;;;;;;;0.60;0.60;;;;;;;;;;5071556;28;20193;-64
2021/03/27 05:18:50;;;;;;;0.50;0.50;;;;;;;;;;5071421;28;20256;-64
2021/03/27 05:21:25;;;;;;;0.50;0.50;;;;;;;;;;5071559;28;20235;-64
2021/03/27 05:24:00;;;;;;;0.40;0.40;;;;;;;;;;5071429;28;20235;-64
2021/03/27 05:26:39;;;;;;;0.60;0.60;;;;;;;;;;5067812;28;20181;-64
2021/03/27 05:29:13;;;;;;;0.50;0.50;;;;;;;;;;5050413;28;20202;-64
2021/03/27 05:31:51;;;;;;;0.60;0.60;;;;;;;;;;5050617;28;20238;-64
2021/03/27 05:34:28;;;;;;;0.60;0.60;;;;;;;;;;5033041;28;20202;-63
2021/03/27 05:37:06;;;;;;;0.45;0.45;;;;;;;;;;5050946;28;20250;-63
2021/03/27 05:39:34;;;;;;;0.40;0.40;;;;;;;;;;5050229;28;20639;-64
2021/03/27 05:42:19;;;;;;;0.40;0.40;;;;;;;;;;5050951;28;20800;-64
2021/03/27 05:45:04;;;;;;;0.50;0.50;;;;;;;;;;5060721;28;20192;-63
2021/03/27 05:47:42;;;;;;;0.50;0.50;;;;;;;;;;5060257;28;20653;-63
2021/03/27 05:50:17;;;;;;;0.40;0.40;;;;;;;;;;5061050;28;20202;-61
2021/03/27 05:52:55;;;;;;;0.57;0.57;;;;;;;;;;5069762;28;20232;-62
2021/03/27 05:55:36;;;;;;;0.60;0.60;;;;;;;;;;5070893;28;20178;-62
2021/03/27 05:58:15;;;;;;;0.40;0.40;;;;;;;;;;5070502;28;20229;-64
2021/03/27 06:00:53;;;;;;;0.60;0.60;;;;;;;;;;5069975;28;20252;-63
2021/03/27 06:03:28;;;;;;;0.40;0.40;;;;;;;;;;5064817;28;20513;-63
2021/03/27 06:06:16;;;;;;;0.55;0.52;;;;;;;;;;5050975;28;20181;-63
2021/03/27 06:09:01;;;;;;;0.40;0.40;;;;;;;;;;5050803;28;20172;-63
2021/03/27 06:11:36;;;;;;;0.40;0.40;;;;;;;;;;5050912;28;20192;-63
2021/03/27 06:14:11;;;;;;;0.60;0.60;;;;;;;;;;5050585;28;20665;-63
2021/03/27 06:16:40;;;;;;;0.40;0.40;;;;;;;;;;5054703;28;20177;-63
2021/03/27 06:19:29;;;;;;;0.40;0.40;;;;;;;;;;5055536;28;20310;-64
2021/03/27 06:22:27;;;;;;;0.45;0.45;;;;;;;;;;5056987;28;20186;-63
2021/03/27 06:25:16;;;;;;;0.50;0.50;;;;;;;;;;5021039;28;20191;-64
2021/03/27 06:28:01;;;;;;;0.50;0.50;;;;;;;;;;5036659;28;20176;-64
2021/03/27 06:30:30;;;;;;;0.40;0.40;;;;;;;;;;5055637;28;20283;-63
2021/03/27 06:33:15;;;;;;;0.50;0.50;;;;;;;;;;5060298;28;20577;-63
2021/03/27 06:35:46;;;;;;;0.50;0.50;;;;;;;;;;5061383;28;20190;-63
2021/03/27 06:38:33;;;;;;;0.50;0.50;;;;;;;;;;5056828;28;20208;-64
2021/03/27 06:41:11;;;;;;;0.60;0.60;;;;;;;;;;5033082;28;20822;-63
2021/03/27 06:43:56;;;;;;;0.45;0.45;;;;;;;;;;5067931;28;20655;-63
2021/03/27 06:46:40;;;;;;;3.03;1.02;;;;;;;;;;5054080;28;20230;-63
2021/03/27 06:49:23;;;;;;;0.40;0.40;;;;;;;;;;5053523;28;20716;-63
2021/03/27 06:52:08;;;;;;;0.63;0.63;;;;;;;;;;5054035;28;20232;-63
2021/03/27 06:54:53;;;;;;;0.40;0.40;;;;;;;;;;5054103;28;20191;-64
2021/03/27 06:57:32;;;;;;;0.50;0.50;;;;;;;;;;5053824;28;20206;-63
2021/03/27 07:00:16;;;;;;;0.50;0.50;;;;;;;;;;5053274;28;20237;-64
2021/03/27 07:03:01;;;;;;;0.50;0.50;;;;;;;;;;5059433;28;20303;-63
2021/03/27 07:05:45;;;;;;;0.40;0.40;;;;;;;;;;5064534;28;20179;-63
2021/03/27 07:08:26;;;;;;;0.40;0.40;;;;;;;;;;5062472;28;20254;-63
2021/03/27 07:11:15;;;;;;;0.60;0.60;;;;;;;;;;5061999;28;20195;-63
2021/03/27 07:13:50;;;;;;;0.40;0.40;;;;;;;;;;5061439;28;20542;-63
2021/03/27 07:16:33;;;;;;;0.50;0.50;;;;;;;;;;5063266;28;20649;-62
2021/03/27 07:19:08;;;;;;;0.40;0.40;;;;;;;;;;5062949;28;20968;-64
2021/03/27 07:21:38;;;;;;;0.52;0.52;;;;;;;;;;5063788;28;20283;-64
2021/03/27 07:24:30;;;;;;;0.40;0.40;;;;;;;;;;5062265;28;20188;-64
2021/03/27 07:27:09;;;;;;;0.40;0.40;;;;;;;;;;5022492;28;20284;-62
2021/03/27 07:29:54;;;;;;;0.60;0.60;;;;;;;;;;5062023;28;20523;-64
2021/03/27 07:32:38;;;;;;;0.50;0.50;;;;;;;;;;5062377;28;20207;-63
2021/03/27 07:35:16;;;;;;;0.60;0.60;;;;;;;;;;5060974;28;20237;-63
2021/03/27 07:37:58;;;;;;;0.60;0.60;;;;;;;;;;5062961;28;20265;-63
2021/03/27 07:40:30;;;;;;;0.50;0.50;;;;;;;;;;5062500;28;20238;-63
2021/03/27 07:43:16;;;;;;;0.50;0.50;;;;;;;;;;5061648;28;20539;-62
2021/03/27 07:45:59;;;;;;;0.40;0.40;;;;;;;;;;5022826;28;20179;-63
2021/03/27 07:48:28;;;;;;;0.55;0.55;;;;;;;;;;5060847;28;20802;-62
2021/03/27 07:51:14;;;;;;;0.50;0.50;;;;;;;;;;5042488;28;20241;-62
2021/03/27 07:53:55;;;;;;;0.40;0.40;;;;;;;;;;5037494;28;20712;-63
2021/03/27 07:56:24;;;;;;;0.40;0.40;;;;;;;;;;5053773;28;20190;-63
2021/03/27 07:58:53;;;;;;;0.47;0.47;;;;;;;;;;5050804;28;20176;-63
2021/03/27 08:01:39;;;;;;;0.50;0.50;;;;;;;;;;5051965;28;20240;-62
2021/03/27 08:04:08;;;;;;;0.40;0.40;;;;;;;;;;5051898;28;20175;-63
2021/03/27 08:06:34;;;;;;;0.50;0.50;;;;;;;;;;5052133;28;20187;-63
2021/03/27 08:09:03;;;;;;;0.40;0.40;;;;;;;;;;5033446;28;20638;-63
2021/03/27 08:11:48;;;;;;;0.50;0.50;;;;;;;;;;5052341;28;20433;-63
2021/03/27 08:14:33;;;;;;;0.40;0.40;;;;;;;;;;5048251;28;20568;-63
2021/03/27 08:17:09;;;;;;;0.50;0.50;;;;;;;;;;5068140;28;20262;-63
2021/03/27 08:19:38;;;;;;;0.40;0.40;;;;;;;;;;5054495;28;20682;-63
2021/03/27 08:22:06;;;;;;;0.43;0.43;;;;;;;;;;5052316;28;20183;-58
2021/03/27 08:24:50;;;;;;;0.73;0.73;;;;;;;;;;5060862;28;20205;-63
2021/03/27 08:27:37;;;;;;;0.40;0.40;;;;;;;;;;5065567;28;20185;-63
2021/03/27 08:30:22;;;;;;;0.50;0.50;;;;;;;;;;5056173;28;20210;-63
2021/03/27 08:33:06;;;;;;;0.40;0.40;;;;;;;;;;5059889;28;20195;-62
2021/03/27 08:35:51;;;;;;;0.45;0.45;;;;;;;;;;5068376;28;20171;-66
2021/03/27 08:38:26;;;;;;;0.50;0.40;;;;;;;;;;5064168;28;20194;-63
2021/03/27 08:40:52;;;;;;;0.80;0.80;;;;;;;;;;5058312;28;20265;-63
2021/03/27 08:43:37;;;;;;;0.50;0.50;;;;;;;;;;5083353;22;20183;-64
2021/03/27 08:46:15;;;;;;;0.40;0.40;;;;;;;;;;5084867;28;20392;-65
2021/03/27 08:48:56;;;;;;;0.40;0.40;;;;;;;;;;5101639;28;20173;-65
2021/03/27 08:51:29;;;;;;;0.45;0.45;;;;;;;;;;5097058;28;20224;-65
2021/03/27 08:54:14;;;;;;;0.80;0.50;;;;;;;;;;5105330;28;20596;-61
2021/03/27 08:56:39;;;;;;;0.40;0.40;;;;;;;;;;5088321;28;20213;-65
2021/03/27 08:59:24;;;;;;;0.50;0.50;;;;;;;;;;5090196;28;20175;-65
2021/03/27 09:02:08;;;;;;;0.52;0.40;;;;;;;;;;5091364;28;20479;-65
2021/03/27 09:04:37;;;;;;;0.40;0.40;;;;;;;;;;5091587;28;20194;-66
2021/03/27 09:07:06;;;;;;;0.57;0.57;;;;;;;;;;5090005;28;20974;-66
2021/03/27 09:09:51;;;;;;;0.67;0.60;;;;;;;;;;5088704;28;20751;-65
2021/03/27 09:12:27;;;;;;;0.40;0.40;;;;;;;;;;5091081;28;20405;-65
2021/03/27 09:14:56;;;;;;;0.40;0.40;;;;;;;;;;5089949;28;20436;-65
2021/03/27 09:17:30;;;;;;;0.40;0.40;;;;;;;;;;5091039;28;20422;-64
2021/03/27 09:20:02;;;;;;;0.60;0.50;;;;;;;;;;5090729;28;20812;-65
2021/03/27 09:22:31;;;;;;;1.10;0.40;;;;;;;;;;5091055;28;20542;-65
2021/03/27 09:25:00;;;;;;;0.40;0.40;;;;;;;;;;5089835;28;20429;-64
2021/03/27 09:27:29;;;;;;;0.40;0.37;;;;;;;;;;5090226;28;20436;-66
2021/03/27 09:30:05;;;;;;;0.40;0.40;;;;;;;;;;5094789;28;20411;-65
2021/03/27 09:32:43;;;;;;;0.40;0.37;;;;;;;;;;5101252;28;20472;-64
2021/03/27 09:35:27;;;;;;;0.40;0.30;;;;;;;;;;5087296;28;20410;-63
2021/03/27 09:38:02;;;;;;;0.70;0.40;;;;;;;;;;5080288;28;20466;-64
2021/03/27 09:40:33;;;;;;;0.40;0.33;;;;;;;;;;5090675;28;20783;-64
2021/03/27 09:43:35;;;;;;;0.40;0.40;;;;;;;;;;5105302;28;20431;-63
2021/03/27 09:46:19;;;;;;;0.40;0.40;;;;;;;;;;5078510;28;20447;-65
2021/03/27 09:48:57;;;;;;;0.40;0.40;;;;;;;;;;5098210;28;20817;-63
2021/03/27 09:51:39;;;;;;;0.40;0.30;;;;;;;;;;5109424;28;20409;-66
2021/03/27 09:54:15;;;;;;;0.80;0.60;;;;;;;;;;5107817;28;20508;-64
2021/03/27 09:56:52;;;;;;;0.53;0.53;;;;;;;;;;5114814;28;20918;-65
2021/03/27 09:59:31;;;;;;;0.40;0.40;;;;;;;;;;5105596;28;20406;-64
2021/03/27 10:02:03;;;;;;;0.40;0.40;;;;;;;;;;5108683;28;20410;-65
2021/03/27 10:04:37;;;;;;;0.70;0.70;;;;;;;;;;5079667;28;20429;-65
2021/03/27 10:07:14;;;;;;;0.40;0.30;;;;;;;;;;5108382;28;20395;-65
2021/03/27 10:09:40;;;;;;;0.70;0.50;;;;;;;;;;5105194;28;20410;-64
2021/03/27 10:12:09;;;;;;;0.40;0.30;;;;;;;;;;5099797;28;20432;-65
2021/03/27 10:14:36;;;;;;;0.40;0.30;;;;;;;;;;5111183;28;20438;-65
2021/03/27 10:17:18;;;;;;;1.00;0.70;;;;;;;;;;5100711;28;20416;-64
2021/03/27 10:20:03;;;;;;;0.60;0.60;;;;;;;;;;5097772;28;20412;-65
2021/03/27 10:22:29;;;;;;;2.25;0.50;;;;;;;;;;5080541;28;20906;-61
2021/03/27 10:25:01;;;;;;;0.50;0.50;;;;;;;;;;5065461;28;20198;-65
2021/03/27 10:27:40;;;;;;;0.70;0.70;;;;;;;;;;5081090;28;20808;-65
2021/03/27 10:30:16;;;;;;;0.50;0.50;;;;;;;;;;5084400;28;20179;-64
2021/03/27 10:32:45;;;;;;;0.40;0.30;;;;;;;;;;5084518;28;20212;-62
2021/03/27 10:35:11;;;;;;;0.40;0.40;;;;;;;;;;5083273;28;20446;-65
2021/03/27 10:37:46;;;;;;;2.20;0.50;;;;;;;;;;5082924;28;20409;-64
2021/03/27 10:40:27;;;;;;;0.53;0.53;;;;;;;;;;5081777;28;20379;-65
2021/03/27 10:42:53;;;;;;;0.40;0.37;;;;;;;;;;5081347;28;20428;-65
2021/03/27 10:45:27;;;;;;;0.40;0.40;;;;;;;;;;5086048;28;20439;-65
2021/03/27 10:48:05;;;;;;;0.93;0.52;;;;;;;;;;5065799;28;20442;-65
2021/03/27 10:50:34;;;;;;;0.60;0.50;;;;;;;;;;5081775;28;20179;-64
2021/03/27 10:53:19;;;;;;;0.40;0.40;;;;;;;;;;5081077;28;20958;-64
2021/03/27 10:56:12;;;;;;;0.40;0.30;;;;;;;;;;5064860;28;20401;-64
2021/03/27 10:58:57;;;;;;;0.67;0.30;;;;;;;;;;5080869;28;20427;-63
2021/03/27 11:01:41;;;;;;;0.50;0.50;;;;;;;;;;5063096;28;20439;-65
2021/03/27 11:04:22;;;;;;;0.40;0.30;;;;;;;;;;5082015;28;20433;-66
2021/03/27 11:07:07;;;;;;;0.40;0.40;;;;;;;;;;5082800;28;20391;-65
2021/03/27 11:09:51;;;;;;;0.40;0.30;;;;;;;;;;5081401;28;20383;-65
2021/03/27 11:12:28;;;;;;;0.47;0.47;;;;;;;;;;5083740;28;20382;-65
2021/03/27 11:15:12;;;;;;;0.40;0.30;;;;;;;;;;5082163;28;20497;-66
2021/03/27 11:17:49;;;;;;;0.40;0.33;;;;;;;;;;5083749;28;20565;-67
2021/03/27 11:20:33;;;;;;;0.50;0.40;;;;;;;;;;5082559;28;20469;-65
2021/03/27 11:23:14;;;;;;;0.80;0.40;;;;;;;;;;5064336;28;20406;-66
2021/03/27 11:25:58;;;;;;;0.77;0.60;;;;;;;;;;5061887;28;20425;-65
2021/03/27 11:28:33;;;;;;;0.40;0.30;;;;;;;;;;5081881;28;20380;-63
2021/03/27 11:31:08;;;;;;;0.40;0.30;;;;;;;;;;5082372;28;20584;-65
2021/03/27 11:33:44;;;;;;;1.43;0.90;;;;;;;;;;5080865;28;20510;-65
2021/03/27 11:36:19;;;;;;;0.77;0.77;;;;;;;;;;5082606;28;20514;-66
2021/03/27 11:39:00;;;;;;;0.70;0.70;;;;;;;;;;5082164;28;20456;-65
2021/03/27 11:41:36;;;;;;;0.40;0.40;;;;;;;;;;5082095;28;20401;-65
2021/03/27 11:44:08;;;;;;;0.70;0.70;;;;;;;;;;5081114;28;20487;-65
2021/03/27 11:46:37;;;;;;;0.40;0.40;;;;;;;;;;5081097;28;20400;-65
2021/03/27 11:49:03;;;;;;;0.77;0.70;;;;;;;;;;5081408;28;20463;-65
2021/03/27 11:51:44;;;;;;;0.93;0.70;;;;;;;;;;5083014;28;20406;-66
2021/03/27 11:54:31;;;;;;;0.60;0.50;;;;;;;;;;5064537;28;20555;-65
2021/03/27 11:57:17;;;;;;;0.60;0.60;;;;;;;;;;5083682;28;20519;-64
2021/03/27 12:00:47;;;;;;;0.40;0.40;;;;;;;;;;5082700;28;20174;-65
2021/03/27 12:02:56;;;;;;;0.43;0.43;;;;;;;;;;5082480;28;20179;-67
2021/03/27 12:05:28;;;;;;;0.50;0.50;;;;;;;;;;5080068;28;20170;-66
2021/03/27 12:08:04;;;;;;;0.60;0.60;;;;;;;;;;5080809;28;20170;-66
2021/03/27 12:10:36;;;;;;;1.08;1.00;;;;;;;;;;5060752;28;20171;-64
2021/03/27 12:13:05;;;;;;;0.40;0.40;;;;;;;;;;5077818;28;20194;-65
2021/03/27 12:15:50;;;;;;;0.40;0.40;;;;;;;;;;5083627;28;20163;-64
2021/03/27 12:18:16;;;;;;;0.43;0.43;;;;;;;;;;5077586;28;20536;-64
2021/03/27 12:20:45;;;;;;;0.40;0.40;;;;;;;;;;5086268;28;20167;-64
2021/03/27 12:23:20;;;;;;;0.40;0.35;;;;;;;;;;5098522;28;20169;-65
2021/03/27 12:25:56;;;;;;;1.40;0.60;;;;;;;;;;5063440;28;20766;-65
2021/03/27 12:28:42;;;;;;;2.53;0.68;;;;;;;;;;5086947;28;20248;-65
2021/03/27 12:31:17;;;;;;;0.50;0.50;;;;;;;;;;5082195;28;20211;-65
2021/03/27 12:34:01;;;;;;;0.40;0.40;;;;;;;;;;5089887;28;20197;-67
2021/03/27 12:36:31;;;;;;;0.50;0.50;;;;;;;;;;5092886;28;20170;-66
2021/03/27 12:39:13;;;;;;;0.40;0.40;;;;;;;;;;5091577;28;20518;-65
2021/03/27 12:41:43;;;;;;;0.50;0.50;;;;;;;;;;5092332;28;20194;-66
2021/03/27 12:44:23;;;;;;;0.50;0.50;;;;;;;;;;5092174;28;20202;-65
2021/03/27 12:46:59;;;;;;;0.50;0.50;;;;;;;;;;5092049;28;20170;-66
2021/03/27 12:49:25;;;;;;;0.60;0.60;;;;;;;;;;5091424;28;20641;-65
2021/03/27 12:52:10;;;;;;;0.50;0.50;;;;;;;;;;5091882;28;20170;-66
2021/03/27 12:54:36;;;;;;;0.60;0.60;;;;;;;;;;5091806;28;21060;-66
2021/03/27 12:57:01;;;;;;;0.53;0.50;;;;;;;;;;5091721;28;20166;-65
2021/03/27 12:59:39;;;;;;;0.57;0.57;;;;;;;;;;5090882;28;20397;-66
2021/03/27 13:02:05;;;;;;;0.40;0.40;;;;;;;;;;5073857;28;20432;-65
2021/03/27 13:04:52;;;;;;;0.60;0.60;;;;;;;;;;5091892;28;20190;-66
2021/03/27 13:07:36;;;;;;;0.40;0.40;;;;;;;;;;5091554;28;20794;-66
2021/03/27 13:10:02;;;;;;;0.40;0.40;;;;;;;;;;5091440;28;20545;-66
2021/03/27 13:12:51;;;;;;;1.17;0.90;;;;;;;;;;5091667;28;20245;-66
2021/03/27 13:15:36;;;;;;;0.40;0.40;;;;;;;;;;5091412;28;20545;-66
2021/03/27 13:18:22;;;;;;;0.40;0.40;;;;;;;;;;5091424;28;20257;-66
2021/03/27 13:20:57;;;;;;;0.40;0.40;;;;;;;;;;5072734;28;20198;-66
2021/03/27 13:23:28;;;;;;;0.50;0.50;;;;;;;;;;5091062;28;20269;-66
2021/03/27 13:25:56;;;;;;;0.43;0.43;;;;;;;;;;5091316;28;20760;-66
2021/03/27 13:28:33;;;;;;;0.55;0.55;;;;;;;;;;5091357;28;20165;-66
2021/03/27 13:31:05;;;;;;;0.77;0.60;;;;;;;;;;5090554;28;20637;-66
2021/03/27 13:33:33;;;;;;;0.50;0.50;;;;;;;;;;5091051;28;20198;-66
2021/03/27 13:36:02;;;;;;;0.45;0.45;;;;;;;;;;5091057;28;20200;-65
2021/03/27 13:38:47;;;;;;;0.40;0.40;;;;;;;;;;5091163;28;20166;-67
2021/03/27 13:41:48;;;;;;;0.40;0.40;;;;;;;;;;5090932;28;20211;-66
2021/03/27 13:44:20;;;;;;;0.40;0.40;;;;;;;;;;5090991;28;20213;-68
2021/03/27 13:47:05;;;;;;;0.50;0.40;;;;;;;;;;5091121;28;20170;-66
2021/03/27 13:50:01;;;;;;;0.57;0.57;;;;;;;;;;5090461;28;20249;-66
2021/03/27 13:52:32;;;;;;;0.80;0.77;;;;;;;;;;5077939;28;20191;-66
2021/03/27 13:55:19;;;;;;;0.50;0.50;;;;;;;;;;5091071;28;20194;-65
2021/03/27 13:58:01;;;;;;;0.50;0.50;;;;;;;;;;5060019;28;20178;-65
2021/03/27 14:00:34;;;;;;;0.40;0.30;;;;;;;;;;5090666;28;20491;-65
2021/03/27 14:03:00;;;;;;;0.60;0.60;;;;;;;;;;5091036;28;20525;-66
2021/03/27 14:05:38;;;;;;;0.50;0.50;;;;;;;;;;5090956;28;20163;-65
2021/03/27 14:08:08;;;;;;;0.40;0.40;;;;;;;;;;5091313;28;20794;-66
2021/03/27 14:10:54;;;;;;;0.60;0.60;;;;;;;;;;5090763;28;20194;-65
2021/03/27 14:13:23;;;;;;;0.40;0.40;;;;;;;;;;5087371;28;20207;-66
2021/03/27 14:15:57;;;;;;;0.55;0.55;;;;;;;;;;5071073;28;20175;-66
2021/03/27 14:18:35;;;;;;;0.40;0.40;;;;;;;;;;5083081;28;20656;-65
2021/03/27 14:21:12;;;;;;;0.73;0.60;;;;;;;;;;5090233;28;20241;-65
2021/03/27 14:23:53;;;;;;;0.40;0.40;;;;;;;;;;5084805;28;20201;-66
2021/03/27 14:26:24;;;;;;;0.45;0.45;;;;;;;;;;5111105;28;20170;-66
2021/03/27 14:28:50;;;;;;;0.40;0.40;;;;;;;;;;5110766;28;20169;-65
2021/03/27 14:31:35;;;;;;;0.70;0.70;;;;;;;;;;5111803;28;20532;-67
2021/03/27 14:34:19;;;;;;;0.50;0.50;;;;;;;;;;5072783;28;20514;-67
2021/03/27 14:36:48;;;;;;;0.40;0.40;;;;;;;;;;5092920;28;20194;-66
2021/03/27 14:39:25;;;;;;;0.50;0.50;;;;;;;;;;5075826;28;20525;-66
2021/03/27 14:41:55;;;;;;;0.65;0.50;;;;;;;;;;5094239;28;20231;-65
2021/03/27 14:44:32;;;;;;;0.40;0.30;;;;;;;;;;5099179;22;20916;-64
2021/03/27 14:47:17;;;;;;;0.50;0.50;;;;;;;;;;5075787;28;20186;-64
2021/03/27 14:49:43;;;;;;;0.60;0.60;;;;;;;;;;5093538;28;20171;-64
2021/03/27 14:52:09;;;;;;;0.50;0.40;;;;;;;;;;5094014;28;20170;-64
2021/03/27 14:54:53;;;;;;;0.90;0.87;;;;;;;;;;5093860;28;20459;-64
2021/03/27 14:57:29;;;;;;;0.40;0.40;;;;;;;;;;5093861;28;20891;-64
2021/03/27 14:59:57;;;;;;;0.40;0.40;;;;;;;;;;5093243;28;20158;-64
2021/03/27 15:02:37;;;;;;;0.85;0.60;;;;;;;;;;5093940;28;20162;-64
2021/03/27 15:05:20;;;;;;;0.60;0.60;;;;;;;;;;5093992;28;20247;-64
2021/03/27 15:08:07;;;;;;;0.50;0.50;;;;;;;;;;5094031;28;20194;-64
2021/03/27 15:10:42;;;;;;;1.00;1.00;;;;;;;;;;5093286;28;20162;-64
2021/03/27 15:13:24;;;;;;;0.65;0.65;;;;;;;;;;5093832;28;20242;-64
2021/03/27 15:15:56;;;;;;;0.55;0.55;;;;;;;;;;5075664;28;20239;-64
2021/03/27 15:18:31;;;;;;;0.80;0.80;;;;;;;;;;5093562;28;20175;-64
2021/03/27 15:20:58;;;;;;;0.50;0.50;;;;;;;;;;5093208;28;20170;-64
2021/03/27 15:23:27;;;;;;;0.40;0.40;;;;;;;;;;5093709;28;20249;-64
2021/03/27 15:29:36;;;;;;;0.60;0.55;;;;;;;;;;5030334;28;20187;-64
2021/03/27 15:32:04;;;;;;;0.50;0.50;;;;;;;;;;5000971;28;20671;-64
2021/03/27 15:34:36;;;;;;;0.98;0.95;;;;;;;;;;5077621;28;20226;-63
2021/03/27 15:37:02;;;;;;;0.40;0.40;;;;;;;;;;5093340;28;20171;-64
2021/03/27 15:39:31;;;;;;;0.50;0.50;;;;;;;;;;5092763;28;20172;-64
2021/03/27 15:41:59;;;;;;;0.40;0.40;;;;;;;;;;5092851;28;20439;-64